メインページ
METAR-TAF:

METAR-TAF

空港 :

サンパウロ, サンパウロ州, ブラジル

コンゴーニャス空港

緯度: 23-37S, 経度: 046-39W, 海抜: 803m

現時点の気象観測

当レポートは40分前の00:00(UTC)に作成
の風 15kt
気温 19°C
湿度 83%
気圧 1016 hPa
視程10km以上
高度900ftの千切れ雲あり

METAR: SBSP 120000Z 17015KT 9999 BKN009 19/16 Q1016

時間: 22:40 (00:40 UTC)

予報

当レポートは3時間28分前の21:12(UTC)に作成
予報は12日の 00時(UTC)から 12日の 24時(UTC)まで有効
南/南東の風 10kt
視程10km以上
高度800ftの曇り
12日の 06時(UTC)から 12日の 11時(UTC)まで一時的に
視程: 3000m
高度600ftの曇り
霧雨, 靄
12日の 12時(UTC)から 12日の 14時(UTC)まで徐々に
視程10km以上
高度1500ftの千切れ雲あり
12日の 18時(UTC)から 12日の 20時(UTC)まで徐々に
高度900ftの曇り

TAF: SBSP 112112Z 1200/1224 15010KT 9999 OVC008 TN18/1209Z TX20/1216Z TEMPO 1206/1211 3000 DZ BR OVC006 BECMG 1212/1214 9999 BKN015 BECMG 1218/1220 OVC009 RMK PGF

4,000以上の空港の気象観測と天気予報(METAR報とTAF報)

利用可能な観測所は地図上に黄色い丸と赤い丸で示す。

丸の上にカーソルを重ねると観測所名を参照できる。

次にクリックすると気象観測と天気予報を参照できる。

マップの切り替え:黒色「×」印の緑ボタンをクリックして拡大、「-」印の緑ボタンをクリックして縮小、緑色の三角印をクリックして隣りの地図に切り替え


METAR-TAF: